[source: ADDS]
METAR
TAF EDVE 041700Z 0418/0421 32005KT CAVOK BECMG 0418/0420 VRB03KT EDDV 050050Z VRB01KT CAVOK 11/09 Q1017

TAF EDDV 042300Z 0500/0524 VRB03KT CAVOK TEMPO 0504/0508 17005KT BECMG 0508/0510 20009KT BECMG 0516/0518 13004KT ETHS 050020Z 08001KT 9999 SCT300 09/07 Q1017 BLU+

TAF ETHS 041320Z 0414/0423 32008KT 9999 NSW FEW050 SCT270 ETHC 050020Z VRB01KT 9999 FEW180 SCT300 12/09 Q1017 BLU+

TAF ETHC 041630Z 0417/0502 VRB03KT 9999 NSW FEW080 SCT300 TAF EDVK 041700Z 0418/0503 VRB03KT CAVOK
TAF
TAF EDVE 041700Z 0418/0421 32005KT CAVOK BECMG 0418/0420 VRB03KT

TAF EDDV 042300Z 0500/0524 VRB03KT CAVOK TEMPO 0504/0508 17005KT BECMG 0508/0510 20009KT BECMG 0516/0518 13004KT

TAF ETHS 041320Z 0414/0423 32008KT 9999 NSW FEW050 SCT270

TAF ETHC 041630Z 0417/0502 VRB03KT 9999 NSW FEW080 SCT300

TAF EDVK 041700Z 0418/0503 VRB03KT CAVOK

SR / SS: 03:45 / 19:01 UTC (EDVE 2020-08-05)
Willkommen in der FFG Paul! Viel Erfolg bei der Ausbildung! +++ Wir begrüßen Julian und Martin als neue Mitglieder der FFG! Viel Erfolg bei der Ausbildung! +++ Oliver hat seinen ersten Alleinflug absolviert! Herzlichen Glückwunsch und weiterhin Happy Landings! +++ Wir begrüßen Gianluca in den Reihen der FFG! Viel Erfolg bei der Ausbildung! +++ Schon wieder zwei neue Mitglieder, herzlich Willkommen Andreas und Thomas! +++ Willkommen in der FFG Fabian! +++ Jens hat die praktische Prüfung bestanden! Herzlichen Glückwunsch und allzeit guten Flug! +++ Wir begrüßen Christopher als neues Mitglied der FFG! Always Happy Landings! +++ Flugbetrieb und Ausbildungsbetrieb unter Auflagen wieder möglich. +++ Gero steht ebenfalls als Fluglehrer zur Verfügung! Vielen Dank an Gero und viel Erfolg beim Ausbilden. +++ Ilya hat die Theorieprüfung bestanden! Herzlichen Glückwunsch und weiterhin viel Erfolg für die restliche Ausbildung!

Neues Bild in 60 Sekunden

Letztes NOTAM EDVE
von 04.08.2020 2200Z bis 05.08.2020 2200Z
FIRE FIGHTING AND RESCUE SERVICES DOWNGRADED TO CAT 3. UPGRADE TO CAT 6 PPR 24HR IN ADVANCE.

Letztes NOTAM EDBC
von 24.07.2020 0746Z bis 23.10.2020 2359Z
ILS RWY 26 OUT OF SERVICE.

Letztes NOTAM EDVM
von 11.09.2020 1500Z bis 13.09.2020 1600Z
AD CLSD.

Letztes NOTAM EDDV
von 12.08.2020 0500Z bis 12.08.2020 1600Z
OCA(H) VALUES RAISED AS FOLLOWS: LOC Y RWY 27L: ALL ACFT CATEGORIES 610 (430) FT LOC Z RWY 27L: ALL ACFT CATEGORIES 610 (430) FT DUE T [more]

Letztes NOTAM EDVK
von 27.07.2020 0954Z bis 31.10.2020 2259Z
ILS RWY 27 DOWNGRADED TO CAT I

Letztes NOTAM EDVS
von 03.08.2020 0917Z bis 01.11.2020 2359Z
AD AVBL ONLY FOR HOMEBASED PILOTS.

          aerodata150     Radio38